Time;durP1;ratioP1;P1;durP2;ratioP2;P2;SDS_P1;SDS_P2;PMS_P1;PMS_P2;Temp;Humidity;BMP_temperature;BMP_pressure;BME280_temperature;BME280_humidity;BME280_pressure;Samples;Min_cycle;Max_cycle;Signal;HPM_P1;HPM_P2
2021/04/18 00:00:17;;;;;;;4.45;2.17;;;8.40;99.90;;;;;;5045931;28;20445;-73
2021/04/18 00:02:44;;;;;;;12.27;2.92;;;8.40;99.90;;;;;;5044527;28;20033;-71
2021/04/18 00:05:11;;;;;;;4.05;2.15;;;8.40;99.90;;;;;;5044419;28;20026;-71
2021/04/18 00:07:37;;;;;;;3.78;2.20;;;8.30;99.90;;;;;;5044627;28;20057;-73
2021/04/18 00:10:05;;;;;;;3.95;2.35;;;8.30;99.90;;;;;;5044603;28;20466;-72
2021/04/18 00:12:31;;;;;;;3.95;2.20;;;8.20;99.90;;;;;;5044537;28;20109;-73
2021/04/18 00:14:57;;;;;;;6.38;2.63;;;8.20;99.90;;;;;;5044415;28;20056;-71
2021/04/18 00:17:23;;;;;;;5.22;2.03;;;8.20;99.90;;;;;;5044302;28;20036;-71
2021/04/18 00:19:48;;;;;;;7.18;2.38;;;8.20;99.90;;;;;;5044018;28;20050;-71
2021/04/18 00:22:14;;;;;;;5.13;2.65;;;8.20;99.90;;;;;;5044076;28;20033;-71
2021/04/18 00:24:40;;;;;;;4.18;2.20;;;8.10;99.90;;;;;;5044547;28;20027;-72
2021/04/18 00:27:06;;;;;;;3.80;2.17;;;8.10;99.90;;;;;;5044401;28;20464;-71
2021/04/18 00:29:32;;;;;;;9.90;3.00;;;8.10;99.90;;;;;;5044393;28;20037;-71
2021/04/18 00:31:57;;;;;;;7.22;3.00;;;8.10;99.90;;;;;;5044064;28;20172;-71
2021/04/18 00:34:23;;;;;;;5.35;2.42;;;8.10;99.90;;;;;;5044074;28;20030;-72
2021/04/18 00:36:49;;;;;;;6.45;2.67;;;8.00;99.90;;;;;;5044318;28;20451;-73
2021/04/18 00:39:15;;;;;;;11.20;3.53;;;8.10;99.90;;;;;;5044332;28;20028;-71
2021/04/18 00:41:40;;;;;;;6.78;2.72;;;8.10;99.90;;;;;;5044477;28;20116;-71
2021/04/18 00:44:06;;;;;;;5.93;2.58;;;8.10;99.90;;;;;;5044150;28;20100;-73
2021/04/18 00:46:32;;;;;;;7.10;2.10;;;8.20;99.90;;;;;;5044389;28;20025;-72
2021/04/18 00:48:58;;;;;;;6.85;2.28;;;8.30;99.90;;;;;;5046370;28;20052;-71
2021/04/18 00:51:23;;;;;;;13.50;2.78;;;8.30;99.90;;;;;;5047808;28;20026;-71
2021/04/18 00:53:49;;;;;;;6.22;2.65;;;8.30;99.90;;;;;;5047781;28;20037;-73
2021/04/18 00:56:15;;;;;;;4.47;2.72;;;8.30;99.90;;;;;;5047707;28;20064;-73
2021/04/18 00:58:41;;;;;;;6.43;2.60;;;8.30;99.90;;;;;;5047696;28;20037;-74
2021/04/18 01:01:07;;;;;;;9.02;2.83;;;8.30;99.90;;;;;;5046623;28;20025;-71
2021/04/18 01:03:33;;;;;;;4.80;2.63;;;8.20;99.90;;;;;;5047610;28;20478;-73
2021/04/18 01:05:59;;;;;;;4.97;2.22;;;8.20;99.90;;;;;;5046267;28;20048;-73
2021/04/18 01:08:24;;;;;;;5.90;2.50;;;8.20;99.90;;;;;;5047562;28;20029;-71
2021/04/18 01:10:50;;;;;;;3.30;2.17;;;8.20;99.90;;;;;;5047362;28;20033;-71
2021/04/18 01:13:16;;;;;;;4.00;2.40;;;8.20;99.90;;;;;;5047394;28;20022;-72
2021/04/18 01:15:42;;;;;;;5.95;2.67;;;8.20;99.90;;;;;;5046259;28;20544;-72
2021/04/18 01:18:08;;;;;;;5.90;2.58;;;8.20;99.90;;;;;;5046244;28;20037;-71
2021/04/18 01:20:33;;;;;;;8.25;3.03;;;8.20;99.90;;;;;;5047165;28;20414;-72
2021/04/18 01:22:59;;;;;;;5.68;2.28;;;8.10;99.90;;;;;;5046884;28;20041;-72
2021/04/18 01:25:25;;;;;;;11.32;2.78;;;8.00;99.90;;;;;;5047169;28;20083;-71
2021/04/18 01:27:50;;;;;;;5.32;3.13;;;8.00;99.90;;;;;;5045964;28;20052;-72
2021/04/18 01:30:20;;;;;;;6.82;2.95;;;7.90;99.90;;;;;;5047165;28;20116;-70
2021/04/18 01:32:49;;;;;;;11.55;3.45;;;7.90;99.90;;;;;;5046994;28;20029;-73
2021/04/18 01:35:16;;;;;;;15.27;3.30;;;7.90;99.90;;;;;;5045719;28;20029;-73
2021/04/18 01:37:43;;;;;;;7.85;3.42;;;7.90;99.90;;;;;;5047024;28;20070;-71
2021/04/18 01:40:13;;;;;;;7.30;2.90;;;8.00;99.90;;;;;;5045707;28;20025;-73
2021/04/18 01:42:40;;;;;;;5.90;2.65;;;8.00;99.90;;;;;;5045498;28;20040;-72
2021/04/18 01:45:07;;;;;;;7.13;2.15;;;7.90;99.90;;;;;;5045629;28;20053;-73
2021/04/18 01:47:33;;;;;;;6.35;2.83;;;7.90;99.90;;;;;;5046908;28;20017;-71
2021/04/18 01:49:59;;;;;;;5.72;3.08;;;7.90;99.90;;;;;;5046733;28;20497;-71
2021/04/18 01:52:25;;;;;;;6.65;3.15;;;7.90;99.90;;;;;;5045483;28;20034;-71
2021/04/18 01:54:50;;;;;;;5.47;2.55;;;8.00;99.90;;;;;;5045418;28;20032;-71
2021/04/18 01:57:16;;;;;;;8.98;3.45;;;7.90;99.90;;;;;;5046721;28;20072;-71
2021/04/18 01:59:42;;;;;;;4.97;2.40;;;7.90;99.90;;;;;;5044428;28;20032;-73
2021/04/18 02:02:10;;;;;;;8.52;3.67;;;7.90;99.90;;;;;;5046499;28;20059;-72
2021/04/18 02:04:36;;;;;;;7.63;3.67;;;7.80;99.90;;;;;;5046569;28;20490;-72
2021/04/18 02:07:03;;;;;;;6.72;3.13;;;7.80;99.90;;;;;;5046551;28;20092;-72
2021/04/18 02:09:30;;;;;;;5.03;2.58;;;7.80;99.90;;;;;;5046316;28;20028;-73
2021/04/18 02:12:01;;;;;;;8.30;2.90;;;7.80;99.90;;;;;;5045156;28;20064;-73
2021/04/18 02:14:27;;;;;;;7.43;2.92;;;7.80;99.90;;;;;;5046333;28;20036;-72
2021/04/18 02:16:53;;;;;;;5.90;2.95;;;7.80;99.90;;;;;;5046210;28;20025;-72
2021/04/18 02:19:19;;;;;;;5.38;2.88;;;7.80;99.90;;;;;;5045851;28;20045;-72
2021/04/18 02:21:45;;;;;;;7.28;2.60;;;7.80;99.90;;;;;;5044611;28;20021;-73
2021/04/18 02:24:12;;;;;;;3.85;2.42;;;7.90;99.90;;;;;;5044966;28;20025;-74
2021/04/18 02:26:38;;;;;;;6.88;3.00;;;7.90;99.90;;;;;;5044895;28;20025;-73
2021/04/18 02:29:04;;;;;;;6.50;3.03;;;7.90;99.90;;;;;;5046087;28;20029;-74
2021/04/18 02:31:29;;;;;;;4.18;2.42;;;7.80;99.90;;;;;;5046049;28;20028;-73
2021/04/18 02:33:55;;;;;;;6.90;3.20;;;7.90;99.90;;;;;;5044463;28;20056;-75
2021/04/18 02:36:21;;;;;;;7.80;2.42;;;7.90;99.90;;;;;;5045918;28;20447;-73
2021/04/18 02:38:46;;;;;;;5.05;3.25;;;7.80;99.90;;;;;;5045692;28;20495;-73
2021/04/18 02:41:12;;;;;;;8.88;3.00;;;7.90;99.90;;;;;;5045915;28;20025;-73
2021/04/18 02:43:38;;;;;;;7.35;2.50;;;7.90;99.90;;;;;;5044597;28;20042;-73
2021/04/18 02:46:03;;;;;;;10.52;2.53;;;7.90;99.90;;;;;;5045760;28;20030;-72
2021/04/18 02:48:29;;;;;;;9.30;2.15;;;8.00;99.90;;;;;;5045581;28;20098;-72
2021/04/18 02:50:55;;;;;;;3.92;2.33;;;8.00;99.90;;;;;;5044249;28;20467;-72
2021/04/18 02:53:21;;;;;;;8.60;2.90;;;8.00;99.90;;;;;;5045527;28;20030;-72
2021/04/18 02:55:46;;;;;;;5.90;3.08;;;8.00;99.90;;;;;;5044049;28;20025;-72
2021/04/18 02:58:12;;;;;;;4.90;2.70;;;8.00;99.90;;;;;;5045558;28;20027;-74
2021/04/18 03:00:38;;;;;;;9.18;2.55;;;8.10;99.90;;;;;;5044129;28;20029;-73
2021/04/18 03:03:04;;;;;;;11.27;3.05;;;8.10;99.90;;;;;;5045513;28;20044;-72
2021/04/18 03:05:30;;;;;;;7.18;3.13;;;8.20;99.90;;;;;;5045433;28;20040;-73
2021/04/18 03:07:55;;;;;;;3.92;2.30;;;8.20;99.90;;;;;;5045266;28;20406;-71
2021/04/18 03:10:21;;;;;;;6.07;2.65;;;8.20;99.90;;;;;;5045235;28;20036;-72
2021/04/18 03:12:46;;;;;;;14.80;2.95;;;8.20;99.90;;;;;;5045178;28;20061;-71
2021/04/18 03:15:13;;;;;;;9.27;3.10;;;8.30;99.90;;;;;;5044017;28;20032;-71
2021/04/18 03:17:39;;;;;;;4.68;2.88;;;8.20;99.90;;;;;;5045346;28;20028;-74
2021/04/18 03:20:05;;;;;;;3.45;2.45;;;8.30;99.90;;;;;;5043517;28;20156;-72
2021/04/18 03:22:31;;;;;;;7.25;2.45;;;8.20;99.90;;;;;;5045008;28;20042;-72
2021/04/18 03:24:57;;;;;;;6.43;2.85;;;8.20;99.90;;;;;;5045011;28;20370;-73
2021/04/18 03:27:23;;;;;;;11.23;3.20;;;8.10;99.90;;;;;;5045014;28;20017;-72
2021/04/18 03:29:48;;;;;;;12.48;3.00;;;8.10;99.90;;;;;;5044971;28;20089;-72
2021/04/18 03:32:14;;;;;;;4.78;2.78;;;8.10;99.90;;;;;;5044761;28;20072;-73
2021/04/18 03:34:40;;;;;;;6.53;3.20;;;8.10;99.90;;;;;;5044995;28;20033;-73
2021/04/18 03:37:07;;;;;;;9.45;2.95;;;8.00;99.90;;;;;;5045099;28;20041;-75
2021/04/18 03:39:32;;;;;;;7.40;2.40;;;8.00;99.90;;;;;;5044951;28;20037;-72
2021/04/18 03:41:58;;;;;;;4.43;2.47;;;8.00;99.90;;;;;;5043447;28;20037;-73
2021/04/18 03:44:24;;;;;;;15.18;3.13;;;7.90;99.90;;;;;;5044818;28;20382;-73
2021/04/18 03:46:49;;;;;;;5.32;2.97;;;7.90;99.90;;;;;;5044779;28;20033;-73
2021/04/18 03:49:15;;;;;;;6.43;2.63;;;7.90;99.90;;;;;;5044637;28;20026;-73
2021/04/18 03:51:41;;;;;;;12.18;3.53;;;7.80;99.90;;;;;;5044738;28;20029;-73
2021/04/18 03:54:06;;;;;;;4.85;2.72;;;7.80;99.90;;;;;;5044698;28;20033;-73
2021/04/18 03:56:32;;;;;;;3.42;2.20;;;7.70;99.90;;;;;;5045010;28;20085;-73
2021/04/18 03:58:57;;;;;;;4.85;3.08;;;7.70;99.90;;;;;;5044768;28;20132;-72
2021/04/18 04:01:23;;;;;;;9.27;2.95;;;7.60;99.90;;;;;;5044475;28;20040;-73
2021/04/18 04:03:48;;;;;;;18.73;2.72;;;7.60;99.90;;;;;;5044168;28;20056;-72
2021/04/18 04:06:14;;;;;;;6.07;3.03;;;7.60;99.90;;;;;;5044491;28;20033;-72
2021/04/18 04:08:40;;;;;;;4.68;2.53;;;7.60;99.90;;;;;;5044611;28;20060;-73
2021/04/18 04:11:05;;;;;;;7.53;3.05;;;7.60;99.90;;;;;;5043405;28;20359;-72
2021/04/18 04:13:31;;;;;;;5.53;2.80;;;7.60;99.90;;;;;;5044535;28;20030;-73
2021/04/18 04:15:56;;;;;;;6.30;2.47;;;7.60;99.90;;;;;;5044555;28;20873;-72
2021/04/18 04:18:22;;;;;;;10.65;3.05;;;7.60;99.90;;;;;;5044222;28;20100;-71
2021/04/18 04:20:48;;;;;;;6.05;2.92;;;7.60;99.90;;;;;;5044181;28;20064;-72
2021/04/18 04:23:13;;;;;;;3.78;2.20;;;7.60;99.90;;;;;;5045422;28;20045;-73
2021/04/18 04:25:39;;;;;;;6.60;2.90;;;7.70;99.90;;;;;;5048644;28;20026;-73
2021/04/18 04:28:07;;;;;;;6.80;2.95;;;7.70;99.90;;;;;;5048213;28;20057;-72
2021/04/18 04:30:33;;;;;;;5.25;2.72;;;7.70;99.90;;;;;;5048371;28;20025;-73
2021/04/18 04:32:59;;;;;;;6.00;2.88;;;7.70;99.90;;;;;;5048188;28;20041;-73
2021/04/18 04:35:24;;;;;;;6.13;2.38;;;7.70;99.90;;;;;;5048277;28;20035;-73
2021/04/18 04:37:50;;;;;;;7.57;3.20;;;7.80;99.90;;;;;;5048189;28;20041;-72
2021/04/18 04:40:16;;;;;;;5.72;2.22;;;7.80;99.90;;;;;;5047948;28;20108;-72
2021/04/18 04:42:41;;;;;;;13.68;3.10;;;7.80;99.90;;;;;;5048007;28;20128;-73
2021/04/18 04:45:08;;;;;;;5.57;2.72;;;7.90;99.90;;;;;;5048180;28;20378;-72
2021/04/18 04:47:34;;;;;;;8.75;2.88;;;7.90;99.90;;;;;;5048114;28;20022;-72
2021/04/18 04:50:00;;;;;;;7.32;2.83;;;7.90;99.90;;;;;;5047797;28;20033;-73
2021/04/18 04:52:25;;;;;;;8.75;3.53;;;7.90;99.90;;;;;;5046549;28;20069;-72
2021/04/18 04:54:52;;;;;;;11.55;2.97;;;8.00;99.90;;;;;;5047911;28;20029;-72
2021/04/18 04:57:18;;;;;;;7.35;3.13;;;8.00;99.90;;;;;;5046503;28;20026;-73
2021/04/18 04:59:43;;;;;;;5.68;2.80;;;8.00;99.90;;;;;;5046375;28;20028;-73
2021/04/18 05:02:09;;;;;;;10.80;2.83;;;8.10;99.90;;;;;;5047715;28;20037;-72
2021/04/18 05:04:35;;;;;;;8.27;3.28;;;8.10;99.90;;;;;;5048025;28;20056;-74
2021/04/18 05:07:01;;;;;;;5.20;2.47;;;8.00;99.90;;;;;;5047684;28;20017;-72
2021/04/18 05:09:26;;;;;;;5.65;2.78;;;8.00;99.90;;;;;;5047624;28;20092;-73
2021/04/18 05:11:52;;;;;;;15.75;2.97;;;8.00;99.90;;;;;;5047573;28;20092;-73
2021/04/18 05:14:18;;;;;;;4.68;2.42;;;8.00;99.90;;;;;;5051594;28;20029;-74
2021/04/18 05:16:43;;;;;;;8.25;2.28;;;8.00;99.90;;;;;;5056912;28;20025;-75
2021/04/18 05:19:09;;;;;;;7.45;2.95;;;7.90;99.90;;;;;;5054753;28;20486;-74
2021/04/18 05:21:35;;;;;;;7.20;3.22;;;8.00;99.90;;;;;;5045016;28;20096;-74
2021/04/18 05:24:01;;;;;;;13.27;2.70;;;8.00;99.90;;;;;;5046798;28;20041;-75
2021/04/18 05:26:26;;;;;;;4.70;2.60;;;8.00;99.90;;;;;;5047302;28;20032;-75
2021/04/18 05:28:53;;;;;;;6.93;2.58;;;8.00;99.90;;;;;;5045708;28;20060;-74
2021/04/18 05:31:19;;;;;;;9.98;2.88;;;8.10;99.90;;;;;;5046950;28;20089;-74
2021/04/18 05:33:46;;;;;;;6.07;2.90;;;8.20;99.90;;;;;;5046518;28;20048;-74
2021/04/18 05:36:12;;;;;;;7.05;2.72;;;8.30;99.90;;;;;;5046126;28;20051;-76
2021/04/18 05:38:37;;;;;;;9.57;3.17;;;8.30;99.90;;;;;;5047265;28;20053;-75
2021/04/18 05:41:03;;;;;;;25.55;3.25;;;8.40;99.90;;;;;;5047114;28;20094;-73
2021/04/18 05:43:30;;;;;;;7.00;3.00;;;8.40;99.90;;;;;;5045363;28;20136;-73
2021/04/18 05:45:55;;;;;;;6.80;2.20;;;8.40;99.90;;;;;;5046718;28;20064;-73
2021/04/18 05:48:21;;;;;;;3.97;2.05;;;8.40;99.90;;;;;;5045561;28;20034;-73
2021/04/18 05:50:46;;;;;;;4.18;2.13;;;8.40;99.90;;;;;;5046533;28;20474;-74
2021/04/18 05:53:13;;;;;;;7.03;2.42;;;8.40;99.90;;;;;;5052753;28;20079;-74
2021/04/18 05:55:40;;;;;;;8.68;2.97;;;8.40;99.90;;;;;;5054695;28;20097;-73
2021/04/18 05:58:08;;;;;;;4.82;2.53;;;8.40;99.90;;;;;;5046927;28;20071;-73
2021/04/18 06:00:34;;;;;;;3.47;2.17;;;8.50;99.90;;;;;;5046678;28;20029;-74
2021/04/18 06:03:00;;;;;;;3.83;2.25;;;8.50;99.90;;;;;;5046306;28;20049;-72
2021/04/18 06:05:26;;;;;;;9.77;2.63;;;8.50;99.90;;;;;;5046245;28;20022;-72
2021/04/18 06:07:52;;;;;;;5.95;2.67;;;8.50;99.90;;;;;;5052973;28;20031;-73
2021/04/18 06:10:18;;;;;;;6.15;2.13;;;8.50;99.90;;;;;;5066032;28;20025;-73
2021/04/18 06:12:44;;;;;;;2.83;1.67;;;8.50;99.90;;;;;;5065987;28;20029;-73
2021/04/18 06:15:10;;;;;;;6.43;2.58;;;8.50;99.90;;;;;;5066592;28;20062;-74
2021/04/18 06:17:37;;;;;;;10.50;1.85;;;8.50;99.90;;;;;;5066311;28;20056;-72
2021/04/18 06:20:04;;;;;;;7.90;2.17;;;8.50;99.90;;;;;;5066130;28;20041;-72
2021/04/18 06:22:30;;;;;;;13.40;2.72;;;8.50;99.90;;;;;;5064423;28;20395;-73
2021/04/18 06:24:55;;;;;;;4.53;2.50;;;8.60;99.90;;;;;;5065987;28;20033;-72
2021/04/18 06:27:21;;;;;;;3.15;1.55;;;8.60;99.90;;;;;;5065996;28;20398;-72
2021/04/18 06:29:47;;;;;;;5.97;2.47;;;8.70;99.90;;;;;;5066072;28;20021;-73
2021/04/18 06:32:12;;;;;;;4.22;1.90;;;8.80;99.90;;;;;;5064723;28;20032;-73
2021/04/18 06:34:39;;;;;;;5.65;1.95;;;8.80;99.90;;;;;;5065926;28;20079;-74
2021/04/18 06:37:05;;;;;;;8.13;2.08;;;8.80;99.90;;;;;;5065837;28;20071;-73
2021/04/18 06:39:31;;;;;;;6.60;2.17;;;8.90;99.90;;;;;;5065878;28;20409;-73
2021/04/18 06:42:01;;;;;;;5.85;2.35;;;8.90;99.90;;;;;;5065763;28;20097;-72
2021/04/18 06:44:29;;;;;;;5.80;1.88;;;9.00;99.90;;;;;;5065741;28;20386;-73
2021/04/18 06:47:00;;;;;;;3.20;1.77;;;8.90;99.90;;;;;;5065128;28;20047;-74
2021/04/18 06:49:26;;;;;;;10.43;2.92;;;9.00;99.90;;;;;;5064088;28;20031;-72
2021/04/18 06:51:52;;;;;;;9.02;2.55;;;9.00;99.90;;;;;;5060917;28;22546;-72
2021/04/18 06:54:19;;;;;;;6.78;2.55;;;9.10;99.90;;;;;;5059280;28;20048;-72
2021/04/18 06:56:46;;;;;;;4.43;2.00;;;9.10;99.90;;;;;;5045432;28;20032;-73
2021/04/18 06:59:11;;;;;;;6.80;1.55;;;9.30;99.90;;;;;;5045389;28;20028;-73
2021/04/18 07:01:38;;;;;;;5.85;2.25;;;9.40;99.90;;;;;;5045459;28;20030;-73
2021/04/18 07:04:18;;;;;;;11.55;2.47;;;9.50;99.90;;;;;;5045391;28;20042;-72
2021/04/18 07:06:52;;;;;;;3.95;2.00;;;9.50;99.90;;;;;;5044239;28;20025;-73
2021/04/18 07:09:20;;;;;;;6.95;2.05;;;9.60;99.90;;;;;;5044716;28;20056;-73
2021/04/18 07:11:49;;;;;;;7.88;2.47;;;9.70;99.90;;;;;;5045132;28;20064;-73
2021/04/18 07:14:26;;;;;;;5.22;1.85;;;9.70;99.90;;;;;;5045140;28;20032;-72
2021/04/18 07:17:13;;;;;;;3.95;2.05;;;9.80;99.90;;;;;;5045168;28;20029;-72
2021/04/18 07:19:43;;;;;;;4.55;2.10;;;9.90;99.90;;;;;;5044223;28;20064;-73
2021/04/18 07:22:14;;;;;;;4.35;1.70;;;10.00;99.90;;;;;;5043541;28;20045;-74
2021/04/18 07:24:52;;;;;;;3.45;1.75;;;10.20;99.90;;;;;;5045131;28;20030;-72
2021/04/18 07:27:20;;;;;;;3.53;1.85;;;10.20;99.90;;;;;;5045135;28;20060;-73
2021/04/18 07:29:57;;;;;;;3.38;1.92;;;10.30;99.90;;;;;;5049530;28;20029;-73
2021/04/18 07:32:27;;;;;;;8.15;2.25;;;10.40;99.90;;;;;;5053781;28;20064;-74
2021/04/18 07:34:53;;;;;;;4.68;2.15;;;10.40;99.90;;;;;;5044798;28;20119;-73
2021/04/18 07:37:25;;;;;;;6.18;1.83;;;10.40;99.90;;;;;;5044855;28;20466;-73
2021/04/18 07:39:54;;;;;;;4.93;2.08;;;10.40;99.90;;;;;;5044517;28;20032;-74
2021/04/18 07:42:41;;;;;;;3.33;2.03;;;10.60;99.90;;;;;;5043384;28;20037;-73
2021/04/18 07:45:09;;;;;;;6.60;2.10;;;10.70;99.90;;;;;;5044958;28;20068;-73
2021/04/18 07:47:38;;;;;;;11.90;2.33;;;10.90;99.90;;;;;;5044995;28;20077;-73
2021/04/18 07:50:13;;;;;;;5.03;2.30;;;11.00;99.90;;;;;;5044760;28;20033;-72
2021/04/18 07:52:44;;;;;;;6.13;2.28;;;11.20;99.90;;;;;;5044526;28;20060;-73
2021/04/18 07:55:12;;;;;;;4.55;1.90;;;11.40;99.90;;;;;;5044503;28;20108;-74
2021/04/18 07:57:38;;;;;;;4.47;1.52;;;11.50;99.90;;;;;;5044010;28;20087;-73
2021/04/18 08:00:05;;;;;;;5.43;1.65;;;11.60;99.90;;;;;;5043265;28;20509;-72
2021/04/18 08:02:31;;;;;;;4.00;2.28;;;11.70;99.90;;;;;;5044489;28;20038;-73
2021/04/18 08:04:57;;;;;;;3.45;1.90;;;11.80;99.90;;;;;;5044508;28;20095;-73
2021/04/18 08:07:24;;;;;;;3.42;2.05;;;11.80;99.90;;;;;;5044385;28;20087;-73
2021/04/18 08:10:23;;;;;;;4.22;2.00;;;11.90;99.90;;;;;;5044392;28;20494;-75
2021/04/18 08:13:26;;;;;;;6.90;2.03;;;12.10;99.90;;;;;;5044385;28;20117;-73
2021/04/18 08:16:01;;;;;;;4.53;1.70;;;12.20;99.90;;;;;;5044002;28;20028;-73
2021/04/18 08:18:37;;;;;;;7.25;2.60;;;12.30;99.90;;;;;;5043822;28;20025;-73
2021/04/18 08:21:35;;;;;;;3.72;1.80;;;12.40;99.90;;;;;;5042167;28;20057;-73
2021/04/18 08:24:04;;;;;;;4.03;2.00;;;12.50;99.90;;;;;;5043950;28;20120;-73
2021/04/18 08:26:31;;;;;;;7.55;1.73;;;12.60;99.90;;;;;;5041937;28;20033;-73
2021/04/18 08:29:03;;;;;;;6.88;1.90;;;12.80;99.90;;;;;;5043222;28;20569;-73
2021/04/18 08:31:30;;;;;;;6.78;2.20;;;13.10;99.90;;;;;;5043191;28;20045;-74
2021/04/18 08:33:58;;;;;;;6.18;2.05;;;13.30;99.90;;;;;;5041751;28;20117;-73
2021/04/18 08:36:27;;;;;;;5.22;1.83;;;13.50;99.90;;;;;;5043213;28;20045;-71
2021/04/18 08:39:04;;;;;;;2.45;1.52;;;13.70;99.90;;;;;;5043113;28;20025;-71
2021/04/18 08:41:40;;;;;;;5.35;2.17;;;13.80;99.90;;;;;;5041836;28;20265;-71
2021/04/18 08:44:19;;;;;;;3.90;1.73;;;13.90;99.90;;;;;;5043391;28;20041;-70
2021/04/18 08:46:47;;;;;;;5.15;1.85;;;14.10;99.90;;;;;;5043194;28;20029;-71
2021/04/18 08:49:35;;;;;;;6.13;2.05;;;14.30;99.90;;;;;;5044473;28;20029;-72
2021/04/18 08:52:08;;;;;;;7.82;1.40;;;14.40;99.90;;;;;;5061822;28;20512;-71
2021/04/18 08:54:35;;;;;;;5.82;1.92;;;14.60;99.90;;;;;;5061919;28;20025;-71
2021/04/18 08:57:05;;;;;;;5.15;1.38;;;14.50;99.90;;;;;;5062778;28;20036;-71
2021/04/18 08:59:31;;;;;;;3.97;2.10;;;14.60;99.90;;;;;;5062799;28;20025;-71
2021/04/18 09:02:11;;;;;;;9.30;2.35;;;14.80;99.90;;;;;;5061224;28;20025;-72
2021/04/18 09:04:41;;;;;;;3.40;1.70;;;14.90;99.90;;;;;;5062023;28;20085;-74
2021/04/18 09:07:10;;;;;;;6.32;1.83;;;14.90;99.90;;;;;;5059589;28;20052;-74
2021/04/18 09:09:37;;;;;;;1.95;1.30;;;15.00;99.90;;;;;;5044455;28;20021;-72
2021/04/18 09:12:04;;;;;;;3.08;1.75;;;15.20;99.90;;;;;;5046383;28;20064;-71
2021/04/18 09:14:30;;;;;;;4.72;1.83;;;15.30;99.90;;;;;;5046615;28;20485;-71
2021/04/18 09:17:21;;;;;;;5.60;1.95;;;15.40;99.90;;;;;;5059820;28;20431;-74
2021/04/18 09:19:53;;;;;;;5.70;1.98;;;15.50;99.90;;;;;;5065195;28;20045;-73
2021/04/18 09:22:21;;;;;;;4.35;1.50;;;15.40;99.90;;;;;;5064718;28;20044;-71
2021/04/18 09:25:08;;;;;;;2.97;1.52;;;15.50;99.90;;;;;;5064714;28;20041;-73
2021/04/18 09:27:35;;;;;;;3.30;1.60;;;15.60;99.90;;;;;;5064944;28;20108;-71
2021/04/18 09:30:03;;;;;;;1.80;1.23;;;15.90;99.90;;;;;;5053027;28;20076;-72
2021/04/18 09:32:34;;;;;;;3.03;1.73;;;16.10;99.90;;;;;;5056672;28;21220;-72
2021/04/18 09:35:01;;;;;;;5.25;1.50;;;16.30;99.90;;;;;;5058300;28;20033;-73
2021/04/18 09:37:32;;;;;;;5.60;1.73;;;16.50;99.90;;;;;;5056725;28;20074;-71
2021/04/18 09:40:02;;;;;;;3.55;1.77;;;16.70;99.90;;;;;;5066335;28;20048;-73
2021/04/18 09:42:31;;;;;;;3.38;1.80;;;16.90;99.90;;;;;;5067661;28;20044;-72
2021/04/18 09:45:23;;;;;;;8.52;2.08;;;17.20;99.90;;;;;;5060036;28;20499;-72
2021/04/18 09:47:55;;;;;;;4.78;1.80;;;17.20;99.90;;;;;;5047379;28;20033;-73
2021/04/18 09:50:22;;;;;;;4.05;2.20;;;17.30;99.90;;;;;;5056900;28;20029;-73
2021/04/18 09:52:49;;;;;;;3.58;1.90;;;17.40;99.90;;;;;;5052665;28;20100;-73
2021/04/18 09:55:23;;;;;;;3.00;1.40;;;17.50;99.90;;;;;;5043371;28;20032;-74
2021/04/18 09:57:58;;;;;;;4.15;1.65;;;17.30;99.90;;;;;;5045661;28;20340;-73
2021/04/18 10:00:30;;;;;;;2.08;1.33;;;17.10;99.90;;;;;;5045606;28;20026;-73
2021/04/18 10:03:07;;;;;;;3.40;1.60;;;16.90;99.90;;;;;;5046785;28;20045;-74
2021/04/18 10:05:58;;;;;;;7.65;2.28;;;16.90;99.90;;;;;;5052254;28;20033;-71
2021/04/18 10:08:31;;;;;;;3.50;1.70;;;16.90;99.90;;;;;;5053698;28;20042;-73
2021/04/18 10:11:08;;;;;;;3.35;1.83;;;17.20;99.90;;;;;;5044515;28;20455;-72
2021/04/18 10:13:38;;;;;;;3.88;1.80;;;17.20;99.90;;;;;;5044506;28;20055;-72
2021/04/18 10:16:05;;;;;;;4.38;1.67;;;17.40;99.90;;;;;;5043945;28;20043;-72
2021/04/18 10:18:32;;;;;;;3.10;1.73;;;17.70;99.90;;;;;;5043931;28;20083;-73
2021/04/18 10:21:19;;;;;;;2.33;1.58;;;18.00;99.90;;;;;;5046399;28;20990;-73
2021/04/18 10:23:47;;;;;;;2.78;1.42;;;18.40;99.90;;;;;;5049916;28;20044;-74
2021/04/18 10:26:16;;;;;;;2.67;1.70;;;18.40;99.90;;;;;;5063693;28;20037;-74
2021/04/18 10:28:42;;;;;;;4.18;1.60;;;18.50;99.90;;;;;;5049365;28;20466;-74
2021/04/18 10:31:10;;;;;;;3.53;1.95;;;18.70;99.90;;;;;;5052450;28;20108;-73
2021/04/18 10:33:37;;;;;;;3.28;1.63;;;19.00;99.90;;;;;;5044120;28;20359;-73
2021/04/18 10:36:03;;;;;;;6.60;1.60;;;19.20;99.90;;;;;;5044558;28;20052;-73
2021/04/18 10:38:28;;;;;;;3.72;1.85;;;19.10;99.90;;;;;;5044546;28;20033;-75
2021/04/18 10:40:54;;;;;;;3.33;1.60;;;18.70;99.90;;;;;;5055868;28;20021;-74
2021/04/18 10:43:19;;;;;;;2.22;0.93;;;18.40;99.90;;;;;;5047714;28;20042;-73
2021/04/18 10:45:45;;;;;;;2.97;1.73;;;18.50;99.90;;;;;;5044899;28;20045;-74
2021/04/18 10:48:11;;;;;;;2.35;1.25;;;18.70;99.90;;;;;;5044793;28;20041;-73
2021/04/18 10:50:36;;;;;;;3.67;1.90;;;19.00;99.90;;;;;;5044720;28;20033;-74
2021/04/18 10:53:03;;;;;;;4.93;1.77;;;19.30;99.90;;;;;;5043314;28;20085;-74
2021/04/18 10:55:28;;;;;;;3.05;1.75;;;19.80;99.90;;;;;;5044781;28;20085;-74
2021/04/18 10:57:54;;;;;;;2.88;1.77;;;20.20;99.90;;;;;;5044735;28;20029;-73
2021/04/18 11:00:20;;;;;;;6.63;1.95;;;20.50;99.90;;;;;;5044292;28;20029;-73
2021/04/18 11:02:46;;;;;;;2.55;1.48;;;20.60;99.90;;;;;;5044347;28;20045;-75
2021/04/18 11:05:13;;;;;;;2.15;1.50;;;20.60;99.90;;;;;;5044418;28;20025;-73
2021/04/18 11:07:38;;;;;;;3.15;1.75;;;20.50;99.90;;;;;;5044520;28;20029;-72
2021/04/18 11:10:06;;;;;;;4.20;1.48;;;20.60;99.90;;;;;;5042942;28;20079;-75
2021/04/18 11:12:31;;;;;;;1.98;1.42;;;20.80;99.90;;;;;;5044367;28;20033;-72
2021/04/18 11:14:57;;;;;;;3.15;1.58;;;20.80;99.90;;;;;;5044073;28;20025;-72
2021/04/18 11:17:23;;;;;;;2.50;1.63;;;20.90;99.90;;;;;;5044274;28;20022;-72
2021/04/18 11:19:50;;;;;;;2.25;1.58;;;21.00;99.90;;;;;;5042394;28;20053;-72
2021/04/18 11:22:17;;;;;;;1.88;1.50;;;21.20;98.60;;;;;;5042349;28;20041;-72
2021/04/18 11:24:43;;;;;;;3.00;1.80;;;20.90;99.90;;;;;;5044302;28;20049;-74
2021/04/18 11:27:09;;;;;;;2.80;1.60;;;20.90;99.90;;;;;;5043977;28;20370;-72
2021/04/18 11:29:37;;;;;;;5.25;1.55;;;21.20;99.90;;;;;;5044089;28;20051;-73
2021/04/18 11:32:03;;;;;;;2.80;1.77;;;21.40;99.90;;;;;;5050286;28;20028;-72
2021/04/18 11:34:28;;;;;;;2.22;1.75;;;21.60;99.90;;;;;;5050489;28;20671;-72
2021/04/18 11:36:54;;;;;;;3.78;2.03;;;21.70;99.40;;;;;;5043862;28;20026;-72
2021/04/18 11:39:19;;;;;;;14.80;2.50;;;21.80;99.50;;;;;;5043771;28;20033;-71
2021/04/18 11:41:45;;;;;;;2.35;1.70;;;21.80;97.70;;;;;;5043853;28;20029;-72
2021/04/18 11:44:14;;;;;;;2.38;1.48;;;21.60;98.40;;;;;;5043694;28;20038;-72
2021/04/18 11:46:40;;;;;;;4.85;2.17;;;21.70;98.60;;;;;;5044008;28;20105;-74
2021/04/18 11:49:06;;;;;;;7.60;2.08;;;21.80;98.30;;;;;;5042658;28;20120;-71
2021/04/18 11:51:32;;;;;;;4.75;2.10;;;22.10;98.60;;;;;;5043800;28;20398;-71
2021/04/18 11:53:57;;;;;;;4.95;1.73;;;22.20;97.70;;;;;;5044437;28;20072;-72
2021/04/18 11:56:23;;;;;;;4.57;2.03;;;22.40;98.40;;;;;;5043861;28;20030;-72
2021/04/18 11:58:49;;;;;;;2.97;2.13;;;22.60;98.00;;;;;;5043684;28;20034;-73
2021/04/18 12:01:15;;;;;;;2.92;1.63;;;22.70;97.50;;;;;;5042024;28;20089;-73
2021/04/18 12:03:40;;;;;;;3.00;2.05;;;22.80;97.80;;;;;;5043507;28;20421;-72
2021/04/18 12:06:06;;;;;;;5.00;2.33;;;22.70;96.20;;;;;;5043842;28;20104;-72
2021/04/18 12:08:32;;;;;;;3.83;2.00;;;22.50;97.30;;;;;;5043539;28;20038;-72
2021/04/18 12:10:57;;;;;;;5.47;2.38;;;22.30;97.10;;;;;;5043540;28;20093;-72
2021/04/18 12:13:23;;;;;;;3.97;2.22;;;22.30;98.10;;;;;;5043460;28;20029;-71
2021/04/18 12:15:49;;;;;;;3.83;2.30;;;22.40;97.50;;;;;;5043513;28;20108;-72
2021/04/18 12:18:14;;;;;;;3.10;1.98;;;22.20;97.10;;;;;;5042173;28;20033;-72
2021/04/18 12:20:40;;;;;;;10.18;3.13;;;22.10;97.50;;;;;;5043200;28;20080;-71
2021/04/18 12:23:06;;;;;;;4.70;2.30;;;22.10;98.00;;;;;;5043301;28;20153;-71
2021/04/18 12:25:31;;;;;;;5.10;2.78;;;22.40;97.80;;;;;;5043766;28;20029;-71
2021/04/18 12:27:57;;;;;;;6.40;2.35;;;22.40;97.70;;;;;;5042813;28;20041;-72
2021/04/18 12:30:23;;;;;;;4.38;2.60;;;22.50;99.00;;;;;;5044082;28;20052;-71
2021/04/18 12:32:48;;;;;;;10.27;2.33;;;22.90;97.80;;;;;;5042140;28;20026;-72
2021/04/18 12:35:16;;;;;;;6.32;2.63;;;22.90;97.10;;;;;;5043157;28;20028;-73
2021/04/18 12:37:43;;;;;;;4.28;2.83;;;23.10;96.40;;;;;;5042802;28;20060;-73
2021/04/18 12:40:10;;;;;;;4.38;2.50;;;23.00;96.00;;;;;;5043458;28;20025;-72
2021/04/18 12:42:35;;;;;;;5.07;2.63;;;23.00;96.60;;;;;;5044272;28;20030;-74
2021/04/18 12:45:06;;;;;;;6.22;2.55;;;23.10;95.90;;;;;;5045217;28;20057;-72
2021/04/18 12:47:32;;;;;;;5.07;2.25;;;23.10;96.30;;;;;;5048099;28;20038;-73
2021/04/18 12:49:58;;;;;;;5.50;2.70;;;23.10;95.70;;;;;;5047687;28;20038;-72
2021/04/18 12:52:24;;;;;;;3.38;2.40;;;23.30;97.20;;;;;;5047688;28;20085;-73
2021/04/18 12:54:49;;;;;;;4.65;2.72;;;23.70;96.70;;;;;;5046156;28;20030;-71